createdAt,value
2017-01-05T00:00:11.793Z,2.04
2017-01-05T00:01:11.810Z,2.12
2017-01-05T00:02:11.833Z,2.09
2017-01-05T00:03:11.782Z,2.04
2017-01-05T00:04:11.793Z,2.04
2017-01-05T00:05:11.757Z,2.05
2017-01-05T00:06:11.864Z,2.09
2017-01-05T00:07:11.799Z,2.06
2017-01-05T00:08:11.859Z,2.06
2017-01-05T00:09:11.888Z,2.12
2017-01-05T00:10:11.817Z,2.05
2017-01-05T00:11:11.830Z,2.16
2017-01-05T00:12:11.785Z,2.08
2017-01-05T00:13:11.764Z,2.05
2017-01-05T00:14:11.776Z,2.11
2017-01-05T00:15:11.898Z,2.04
2017-01-05T00:16:11.786Z,2.01
2017-01-05T00:17:11.841Z,2.04
2017-01-05T00:18:11.852Z,1.92
2017-01-05T00:19:11.837Z,1.94
2017-01-05T00:20:11.856Z,2.01
2017-01-05T00:21:11.918Z,2.01
2017-01-05T00:22:11.796Z,2.06
2017-01-05T00:23:11.927Z,2.02
2017-01-05T00:24:11.859Z,2.02
2017-01-05T00:25:11.806Z,2.04
2017-01-05T00:26:11.866Z,2.09
2017-01-05T00:27:11.906Z,2.08
2017-01-05T00:28:12.004Z,2.04
2017-01-05T00:29:11.809Z,2.09
2017-01-05T00:30:11.894Z,2.04
2017-01-05T00:31:11.815Z,2.02
2017-01-05T00:32:11.827Z,2.02
2017-01-05T00:33:11.905Z,2.06
2017-01-05T00:34:11.884Z,1.93
2017-01-05T00:35:11.898Z,2.05
2017-01-05T00:36:11.838Z,1.98
2017-01-05T00:37:11.897Z,1.9
2017-01-05T00:38:11.896Z,1.86
2017-01-05T00:39:11.915Z,1.89
2017-01-05T00:40:11.913Z,1.9
2017-01-05T00:41:11.855Z,1.82
2017-01-05T00:42:11.974Z,1.82
2017-01-05T00:43:11.898Z,1.86
2017-01-05T00:44:11.945Z,1.86
2017-01-05T00:45:11.858Z,1.78
2017-01-05T00:46:11.917Z,1.72
2017-01-05T00:47:11.926Z,1.69
2017-01-05T00:48:13.401Z,1.68
2017-01-05T00:49:11.895Z,1.76
2017-01-05T00:50:12.014Z,1.66
2017-01-05T00:51:11.973Z,1.65
2017-01-05T00:52:11.963Z,1.68
2017-01-05T00:53:11.955Z,1.53
2017-01-05T00:54:11.983Z,1.66
2017-01-05T00:55:11.878Z,1.64
2017-01-05T00:56:11.947Z,1.72
2017-01-05T00:57:11.906Z,1.68
2017-01-05T00:58:11.897Z,1.75
2017-01-05T00:59:11.944Z,1.89
2017-01-05T01:00:12.154Z,1.76
2017-01-05T01:01:12.039Z,1.82
2017-01-05T01:02:11.907Z,1.82
2017-01-05T01:03:11.967Z,1.83
2017-01-05T01:04:11.936Z,1.93
2017-01-05T01:05:12.112Z,1.9
2017-01-05T01:06:12.065Z,1.9
2017-01-05T01:07:11.992Z,1.87
2017-01-05T01:08:12.046Z,1.86
2017-01-05T01:09:12.075Z,1.89
2017-01-05T01:10:12.039Z,1.89
2017-01-05T01:11:11.924Z,1.79
2017-01-05T01:12:11.978Z,1.76
2017-01-05T01:13:12.005Z,1.76
2017-01-05T01:14:12.065Z,1.66
2017-01-05T01:15:12.015Z,1.75
2017-01-05T01:16:11.960Z,1.72
2017-01-05T01:17:12.013Z,1.68
2017-01-05T01:18:11.947Z,1.83
2017-01-05T01:19:12.071Z,1.83
2017-01-05T01:20:12.086Z,1.87
2017-01-05T01:21:12.097Z,1.92
2017-01-05T01:22:11.975Z,2.02
2017-01-05T01:23:12.008Z,1.93
2017-01-05T01:24:12.081Z,1.98
2017-01-05T01:25:12.019Z,1.97
2017-01-05T01:26:12.034Z,1.97
2017-01-05T01:27:12.034Z,1.92
2017-01-05T01:28:12.092Z,1.9
2017-01-05T01:29:11.976Z,1.84
2017-01-05T01:30:12.098Z,1.89
2017-01-05T01:31:12.046Z,1.92
2017-01-05T01:32:12.161Z,1.79
2017-01-05T01:33:12.050Z,1.72
2017-01-05T01:34:12.109Z,1.74
2017-01-05T01:35:12.000Z,1.78
2017-01-05T01:36:12.080Z,1.72
2017-01-05T01:37:12.131Z,1.65
2017-01-05T01:38:12.072Z,1.68
2017-01-05T01:39:12.070Z,1.57
2017-01-05T01:40:12.095Z,1.51
2017-01-05T01:41:12.076Z,1.5
2017-01-05T01:42:12.061Z,1.65
2017-01-05T01:43:12.101Z,1.51
2017-01-05T01:44:12.063Z,1.53
2017-01-05T01:45:12.081Z,1.6
2017-01-05T01:46:12.081Z,1.51
2017-01-05T01:47:12.100Z,1.5
2017-01-05T01:48:12.169Z,1.42
2017-01-05T01:49:12.167Z,1.4
2017-01-05T01:50:12.102Z,1.36
2017-01-05T01:51:12.100Z,1.38
2017-01-05T01:52:12.118Z,1.39
2017-01-05T01:53:12.108Z,1.44
2017-01-05T01:54:12.168Z,1.51
2017-01-05T01:55:12.111Z,1.51
2017-01-05T01:56:12.106Z,1.5
2017-01-05T01:57:12.110Z,1.47
2017-01-05T01:58:12.102Z,1.58
2017-01-05T01:59:12.183Z,1.48
2017-01-05T02:00:12.072Z,1.53
2017-01-05T02:01:12.184Z,1.56
2017-01-05T02:02:12.127Z,1.48
2017-01-05T02:03:12.214Z,1.56
2017-01-05T02:04:12.161Z,1.51
2017-01-05T02:05:12.200Z,1.53
2017-01-05T02:06:12.186Z,1.54
2017-01-05T02:07:12.262Z,1.48
2017-01-05T02:08:12.178Z,1.4
2017-01-05T02:09:12.159Z,1.47
2017-01-05T02:10:12.241Z,1.46
2017-01-05T02:11:12.159Z,1.47
2017-01-05T02:12:12.208Z,1.47
2017-01-05T02:13:12.226Z,1.38
2017-01-05T02:14:12.159Z,1.39
2017-01-05T02:15:12.217Z,1.38
2017-01-05T02:16:12.163Z,1.3
2017-01-05T02:17:12.169Z,1.26
2017-01-05T02:18:12.175Z,1.32
2017-01-05T02:19:12.170Z,1.3
2017-01-05T02:20:12.263Z,1.28
2017-01-05T02:21:12.156Z,1.28
2017-01-05T02:22:12.119Z,1.3
2017-01-05T02:23:12.109Z,1.2
2017-01-05T02:24:12.183Z,1.17
2017-01-05T02:25:12.274Z,1.14
2017-01-05T02:26:12.900Z,1.11
2017-01-05T02:27:12.190Z,1.11
2017-01-05T02:28:12.161Z,1.18
2017-01-05T02:29:12.208Z,1.03
2017-01-05T02:30:12.214Z,0.97
2017-01-05T02:31:12.282Z,0.96
2017-01-05T02:32:12.221Z,0.97
2017-01-05T02:33:12.177Z,0.96
2017-01-05T02:34:12.327Z,0.86
2017-01-05T02:35:12.242Z,1
2017-01-05T02:36:12.328Z,0.92
2017-01-05T02:37:12.241Z,0.89
2017-01-05T02:38:12.382Z,0.84
2017-01-05T02:39:12.234Z,0.96
2017-01-05T02:40:12.297Z,0.97
2017-01-05T02:41:12.204Z,0.99
2017-01-05T02:42:12.231Z,0.96
2017-01-05T02:43:12.310Z,1.02
2017-01-05T02:44:12.174Z,0.97
2017-01-05T02:45:12.308Z,1.02
2017-01-05T02:46:12.285Z,1.02
2017-01-05T02:47:12.233Z,0.99
2017-01-05T02:48:12.321Z,1.04
2017-01-05T02:49:12.258Z,1.1
2017-01-05T02:50:12.270Z,1.04
2017-01-05T02:51:12.264Z,0.97
2017-01-05T02:52:12.303Z,1.02
2017-01-05T02:53:12.267Z,1.02
2017-01-05T02:54:12.258Z,0.92
2017-01-05T02:55:12.196Z,0.97
2017-01-05T02:56:12.288Z,1
2017-01-05T02:57:12.391Z,0.9
2017-01-05T02:58:12.216Z,0.92
2017-01-05T02:59:12.336Z,0.78
2017-01-05T03:00:12.344Z,0.72
2017-01-05T03:01:12.244Z,0.71
2017-01-05T03:02:12.366Z,0.84
2017-01-05T03:03:12.222Z,0.82
2017-01-05T03:04:12.238Z,0.84
2017-01-05T03:05:12.343Z,0.72
2017-01-05T03:06:12.301Z,0.78
2017-01-05T03:07:12.308Z,0.81
2017-01-05T03:08:12.471Z,0.84
2017-01-05T03:09:12.508Z,0.81
2017-01-05T03:10:12.408Z,0.75
2017-01-05T03:11:12.252Z,0.72
2017-01-05T03:12:12.283Z,0.82
2017-01-05T03:13:12.351Z,0.84
2017-01-05T03:14:12.335Z,0.78
2017-01-05T03:15:12.264Z,0.89
2017-01-05T03:16:12.285Z,0.89
2017-01-05T03:17:12.261Z,0.96
2017-01-05T03:18:12.281Z,0.97
2017-01-05T03:19:12.352Z,0.9
2017-01-05T03:20:12.392Z,0.84
2017-01-05T03:21:12.335Z,0.93
2017-01-05T03:22:12.328Z,0.9
2017-01-05T03:23:12.402Z,0.94
2017-01-05T03:24:12.452Z,1
2017-01-05T03:25:12.356Z,0.94
2017-01-05T03:26:12.498Z,0.89
2017-01-05T03:27:12.356Z,0.92
2017-01-05T03:28:12.306Z,0.93
2017-01-05T03:29:12.411Z,1.04
2017-01-05T03:30:12.398Z,1
2017-01-05T03:31:12.360Z,1.02
2017-01-05T03:32:12.319Z,1.02
2017-01-05T03:33:12.405Z,1.12
2017-01-05T03:34:12.373Z,1.04
2017-01-05T03:35:12.436Z,1.08
2017-01-05T03:36:12.466Z,1.03
2017-01-05T03:37:12.382Z,1.02
2017-01-05T03:38:12.368Z,1.02
2017-01-05T03:39:12.400Z,1
2017-01-05T03:40:12.471Z,1.17
2017-01-05T03:41:12.509Z,1.1
2017-01-05T03:42:12.463Z,1.17
2017-01-05T03:43:12.477Z,1.17
2017-01-05T03:44:12.414Z,1.17
2017-01-05T03:45:12.449Z,1.12
2017-01-05T03:46:12.484Z,1.18
2017-01-05T03:47:12.359Z,1.17
2017-01-05T03:48:12.376Z,0.69
2017-01-05T03:49:12.483Z,1.17
2017-01-05T03:50:12.434Z,1.17
2017-01-05T03:51:12.438Z,1.2
2017-01-05T03:52:12.444Z,1.21
2017-01-05T03:53:12.370Z,1.26
2017-01-05T03:54:12.434Z,1.14
2017-01-05T03:55:12.485Z,1.15
2017-01-05T03:56:12.456Z,1.2
2017-01-05T03:57:12.435Z,1.17
2017-01-05T03:58:12.423Z,1.21
2017-01-05T03:59:12.447Z,1.2
2017-01-05T04:00:12.376Z,1.14
2017-01-05T04:01:12.485Z,1.2
2017-01-05T04:02:12.408Z,1.22
2017-01-05T04:03:13.622Z,1.28
2017-01-05T04:04:12.515Z,1.21
2017-01-05T04:05:12.490Z,1.22
2017-01-05T04:06:12.539Z,1.28
2017-01-05T04:07:12.488Z,1.22
2017-01-05T04:08:12.551Z,1.2
2017-01-05T04:09:12.465Z,1.18
2017-01-05T04:10:12.524Z,1.04
2017-01-05T04:11:12.517Z,1.15
2017-01-05T04:12:12.574Z,1.07
2017-01-05T04:13:12.420Z,1.08
2017-01-05T04:14:12.564Z,1.04
2017-01-05T04:15:12.475Z,0.99
2017-01-05T04:16:12.490Z,1.04
2017-01-05T04:17:12.524Z,1
2017-01-05T04:18:12.492Z,1
2017-01-05T04:19:12.447Z,1
2017-01-05T04:20:12.515Z,1.02
2017-01-05T04:21:12.446Z,0.89
2017-01-05T04:22:12.534Z,0.93
2017-01-05T04:23:12.513Z,0.84
2017-01-05T04:24:12.462Z,0.86
2017-01-05T04:25:12.479Z,0.79
2017-01-05T04:26:12.537Z,0.79
2017-01-05T04:27:12.544Z,0.82
2017-01-05T04:28:12.559Z,0.78
2017-01-05T04:29:12.509Z,0.9
2017-01-05T04:30:12.602Z,0.93
2017-01-05T04:31:13.157Z,0.97
2017-01-05T04:32:12.550Z,0.75
2017-01-05T04:33:12.603Z,0.79
2017-01-05T04:34:12.565Z,0.84
2017-01-05T04:35:12.564Z,0.84
2017-01-05T04:36:12.578Z,0.92
2017-01-05T04:37:12.611Z,0.85
2017-01-05T04:38:12.655Z,0.82
2017-01-05T04:39:12.632Z,0.89
2017-01-05T04:40:12.587Z,0.84
2017-01-05T04:41:12.603Z,0.86
2017-01-05T04:42:12.583Z,0.72
2017-01-05T04:43:12.629Z,0.81
2017-01-05T04:44:12.618Z,0.76
2017-01-05T04:45:12.566Z,0.76
2017-01-05T04:46:12.608Z,0.67
2017-01-05T04:47:12.583Z,0.64
2017-01-05T04:48:12.579Z,0.74
2017-01-05T04:49:12.614Z,0.74
2017-01-05T04:50:12.512Z,0.76
2017-01-05T04:51:12.597Z,0.81
2017-01-05T04:52:12.606Z,0.71
2017-01-05T04:53:12.611Z,0.74
2017-01-05T04:54:13.203Z,0.82
2017-01-05T04:55:12.531Z,0.67
2017-01-05T04:56:12.660Z,0.81
2017-01-05T04:57:12.534Z,0.69
2017-01-05T04:58:12.670Z,0.75
2017-01-05T04:59:12.618Z,0.71
2017-01-05T05:00:12.590Z,0.72
2017-01-05T05:01:12.573Z,0.67
2017-01-05T05:02:12.564Z,0.64
2017-01-05T05:03:12.681Z,0.66
2017-01-05T05:04:12.647Z,0.61
2017-01-05T05:05:12.769Z,0.56
2017-01-05T05:06:12.649Z,0.63
2017-01-05T05:07:12.692Z,0.67
2017-01-05T05:08:12.748Z,0.75
2017-01-05T05:09:12.632Z,0.57
2017-01-05T05:10:12.642Z,0.57
2017-01-05T05:11:12.628Z,0.44
2017-01-05T05:12:12.787Z,0.5
2017-01-05T05:13:12.712Z,0.53
2017-01-05T05:14:12.695Z,0.5
2017-01-05T05:15:12.711Z,0.61
2017-01-05T05:16:12.689Z,0.52
2017-01-05T05:17:12.653Z,0.58
2017-01-05T05:18:12.701Z,0.52
2017-01-05T05:19:12.610Z,0.5
2017-01-05T05:20:12.709Z,0.37
2017-01-05T05:21:12.639Z,0.37
2017-01-05T05:22:12.598Z,0.47
2017-01-05T05:23:12.619Z,0.42
2017-01-05T05:24:12.671Z,0.38
2017-01-05T05:25:12.739Z,0.42
2017-01-05T05:26:12.617Z,0.35
2017-01-05T05:27:12.680Z,0.28
2017-01-05T05:28:12.692Z,0.42
2017-01-05T05:29:12.619Z,0.37
2017-01-05T05:30:12.752Z,0.28
2017-01-05T05:31:12.693Z,0.38
2017-01-05T05:32:12.815Z,0.37
2017-01-05T05:33:12.631Z,0.32
2017-01-05T05:34:12.644Z,0.24
2017-01-05T05:35:12.769Z,0.32
2017-01-05T05:36:12.772Z,0.31
2017-01-05T05:37:12.780Z,0.16
2017-01-05T05:38:12.726Z,0.34
2017-01-05T05:39:12.777Z,0.21
2017-01-05T05:40:12.722Z,0.1
2017-01-05T05:41:12.720Z,0.26
2017-01-05T05:42:12.724Z,0.17
2017-01-05T05:43:12.840Z,0.23
2017-01-05T05:44:12.829Z,0.1
2017-01-05T05:45:12.682Z,0.09
2017-01-05T05:46:12.699Z,0.13
2017-01-05T05:47:12.747Z,0.01
2017-01-05T05:48:12.845Z,0.2
2017-01-05T05:49:12.750Z,0.16
2017-01-05T05:50:12.812Z,0.09
2017-01-05T05:51:12.757Z,-0.05
2017-01-05T05:52:12.729Z,0.06
2017-01-05T05:53:12.780Z,0.06
2017-01-05T05:54:12.764Z,-0.04
2017-01-05T05:55:12.712Z,-0.04
2017-01-05T05:56:12.819Z,0.03
2017-01-05T05:57:12.772Z,-0.01
2017-01-05T05:58:12.834Z,0.02
2017-01-05T05:59:12.776Z,-0.09
2017-01-05T06:00:12.829Z,-0.02
2017-01-05T06:01:12.773Z,-0.07
2017-01-05T06:02:12.795Z,-0.01
2017-01-05T06:03:12.770Z,-0.07
2017-01-05T06:04:12.809Z,-0.18
2017-01-05T06:05:12.767Z,-0.15
2017-01-05T06:06:12.722Z,-0.12
2017-01-05T06:07:12.773Z,-0.19
2017-01-05T06:08:12.774Z,-0.2
2017-01-05T06:09:12.758Z,-0.2
2017-01-05T06:10:12.776Z,-0.22
2017-01-05T06:11:12.789Z,-0.13
2017-01-05T06:12:12.789Z,-0.18
2017-01-05T06:13:12.726Z,-0.1
2017-01-05T06:14:12.877Z,-0.18
2017-01-05T06:15:12.854Z,-0.2
2017-01-05T06:16:12.800Z,-0.15
2017-01-05T06:17:12.852Z,-0.3
2017-01-05T06:18:12.876Z,-0.3
2017-01-05T06:19:12.746Z,-0.19
2017-01-05T06:20:12.843Z,-0.19
2017-01-05T06:21:12.822Z,-0.19
2017-01-05T06:22:12.806Z,-0.3
2017-01-05T06:23:12.775Z,-0.2
2017-01-05T06:24:12.894Z,-0.33
2017-01-05T06:25:12.873Z,-0.3
2017-01-05T06:26:12.881Z,-0.36
2017-01-05T06:27:12.824Z,-0.33
2017-01-05T06:28:12.779Z,-0.43
2017-01-05T06:29:12.868Z,-0.43
2017-01-05T06:30:12.846Z,-0.36
2017-01-05T06:31:12.864Z,-0.33
2017-01-05T06:32:12.795Z,-0.34
2017-01-05T06:33:12.850Z,-0.38
2017-01-05T06:34:12.868Z,-0.27
2017-01-05T06:35:12.892Z,-0.25
2017-01-05T06:36:12.878Z,-0.19
2017-01-05T06:37:12.808Z,-0.3
2017-01-05T06:38:12.863Z,-0.25
2017-01-05T06:39:12.950Z,-0.27
2017-01-05T06:40:12.872Z,-0.41
2017-01-05T06:41:13.193Z,-0.37
2017-01-05T06:42:12.808Z,-0.45
2017-01-05T06:43:12.873Z,-0.52
2017-01-05T06:44:12.958Z,-0.55
2017-01-05T06:45:12.830Z,-0.43
2017-01-05T06:46:12.925Z,-0.52
2017-01-05T06:47:12.881Z,-0.51
2017-01-05T06:48:12.933Z,-0.64
2017-01-05T06:49:12.890Z,-0.61
2017-01-05T06:50:12.892Z,-0.59
2017-01-05T06:51:12.855Z,-0.59
2017-01-05T06:52:12.945Z,-0.59
2017-01-05T06:53:12.898Z,-0.67
2017-01-05T06:54:12.967Z,-0.73
2017-01-05T06:55:12.904Z,-0.59
2017-01-05T06:56:12.919Z,-0.69
2017-01-05T06:57:12.959Z,-0.67
2017-01-05T06:58:12.974Z,-0.72
2017-01-05T06:59:12.932Z,-0.79
2017-01-05T07:00:14.405Z,-0.73
2017-01-05T07:01:12.918Z,-0.77
2017-01-05T07:02:12.919Z,-0.84
2017-01-05T07:03:12.888Z,-0.76
2017-01-05T07:04:12.919Z,-0.79
2017-01-05T07:05:12.937Z,-0.8
2017-01-05T07:06:12.908Z,-0.82
2017-01-05T07:07:13.060Z,-0.74
2017-01-05T07:08:12.958Z,-0.77
2017-01-05T07:09:12.985Z,-0.79
2017-01-05T07:10:12.969Z,-0.84
2017-01-05T07:11:13.036Z,-0.84
2017-01-05T07:12:12.978Z,-0.84
2017-01-05T07:13:12.959Z,-0.79
2017-01-05T07:14:12.957Z,-0.79
2017-01-05T07:15:12.918Z,-0.77
2017-01-05T07:16:13.117Z,-0.79
2017-01-05T07:17:13.051Z,-0.72
2017-01-05T07:18:12.914Z,-0.74
2017-01-05T07:19:12.898Z,-0.74
2017-01-05T07:20:12.974Z,-0.73
2017-01-05T07:21:12.927Z,-0.64
2017-01-05T07:22:13.022Z,-0.72
2017-01-05T07:23:13.040Z,-0.8
2017-01-05T07:24:12.988Z,-0.67
2017-01-05T07:25:12.980Z,-0.74
2017-01-05T07:26:13.004Z,-0.7
2017-01-05T07:27:13.116Z,-0.67
2017-01-05T07:28:12.993Z,-0.67
2017-01-05T07:29:13.060Z,-0.72
2017-01-05T07:30:12.993Z,-0.67
2017-01-05T07:31:13.067Z,-0.73
2017-01-05T07:32:13.027Z,-0.72
2017-01-05T07:33:13.039Z,-0.7
2017-01-05T07:34:13.038Z,-0.72
2017-01-05T07:35:13.016Z,-0.72
2017-01-05T07:36:13.092Z,-0.73
2017-01-05T07:37:13.023Z,-0.76
2017-01-05T07:38:13.069Z,-0.74
2017-01-05T07:39:13.018Z,-0.87
2017-01-05T07:40:13.020Z,-0.74
2017-01-05T07:41:13.084Z,-0.72
2017-01-05T07:42:12.964Z,-0.69
2017-01-05T07:43:12.988Z,-0.76
2017-01-05T07:44:13.039Z,-0.77
2017-01-05T07:45:13.136Z,-0.76
2017-01-05T07:46:13.035Z,-0.76
2017-01-05T07:47:13.053Z,-0.76
2017-01-05T07:48:13.202Z,-0.82
2017-01-05T07:49:13.069Z,-0.79
2017-01-05T07:50:13.177Z,-0.69
2017-01-05T07:51:13.075Z,-0.79
2017-01-05T07:52:13.151Z,-0.76
2017-01-05T07:53:13.070Z,-0.69
2017-01-05T07:54:13.052Z,-0.64
2017-01-05T07:55:13.063Z,-0.67
2017-01-05T07:56:13.147Z,-0.59
2017-01-05T07:57:13.019Z,-0.69
2017-01-05T07:58:13.071Z,-0.73
2017-01-05T07:59:13.069Z,-0.62
2017-01-05T08:00:13.142Z,-0.76
2017-01-05T08:01:13.174Z,-0.7
2017-01-05T08:02:13.177Z,-0.62
2017-01-05T08:03:13.042Z,-0.64
2017-01-05T08:04:13.103Z,-0.62
2017-01-05T08:05:13.049Z,-0.67
2017-01-05T08:06:13.110Z,-0.67
2017-01-05T08:07:13.151Z,-0.61
2017-01-05T08:08:13.100Z,-0.7
2017-01-05T08:09:13.105Z,-0.62
2017-01-05T08:10:13.097Z,-0.69
2017-01-05T08:11:13.129Z,-0.62
2017-01-05T08:12:13.112Z,-0.59
2017-01-05T08:13:13.137Z,-0.59
2017-01-05T08:14:13.074Z,-0.64
2017-01-05T08:15:13.124Z,-0.61
2017-01-05T08:16:13.118Z,-0.69
2017-01-05T08:17:13.115Z,-0.7
2017-01-05T08:18:13.347Z,-0.66
2017-01-05T08:19:13.140Z,-0.66
2017-01-05T08:20:13.139Z,-0.69
2017-01-05T08:21:13.155Z,-0.62
2017-01-05T08:22:13.102Z,-0.58
2017-01-05T08:23:13.193Z,-0.62
2017-01-05T08:24:13.085Z,-0.69
2017-01-05T08:25:13.104Z,-0.59
2017-01-05T08:26:13.147Z,-0.56
2017-01-05T08:27:13.198Z,-0.54
2017-01-05T08:28:13.171Z,-0.55
2017-01-05T08:29:13.170Z,-0.55
2017-01-05T08:30:13.159Z,-0.52
2017-01-05T08:31:13.209Z,-0.52
2017-01-05T08:32:13.170Z,-0.48
2017-01-05T08:33:13.242Z,-0.64
2017-01-05T08:34:13.162Z,-0.48
2017-01-05T08:35:13.176Z,-0.41
2017-01-05T08:36:13.245Z,-0.43
2017-01-05T08:37:13.200Z,-0.46
2017-01-05T08:38:13.208Z,-0.43
2017-01-05T08:39:13.118Z,-0.48
2017-01-05T08:40:13.163Z,-0.36
2017-01-05T08:41:13.200Z,-0.49
2017-01-05T08:42:13.272Z,-0.37
2017-01-05T08:43:13.199Z,-0.38
2017-01-05T08:44:13.271Z,-0.38
2017-01-05T08:45:13.223Z,-0.3
2017-01-05T08:46:13.242Z,-0.34
2017-01-05T08:47:13.232Z,-0.33
2017-01-05T08:48:13.210Z,-0.3
2017-01-05T08:49:13.200Z,-0.25
2017-01-05T08:50:13.219Z,-0.28
2017-01-05T08:51:13.181Z,-0.22
2017-01-05T08:52:13.291Z,-0.22
2017-01-05T08:53:13.376Z,-0.31
2017-01-05T08:54:13.351Z,-0.27
2017-01-05T08:55:13.166Z,-0.3
2017-01-05T08:56:13.219Z,-0.07
2017-01-05T08:57:13.188Z,-0.27
2017-01-05T08:58:13.355Z,-0.22
2017-01-05T08:59:13.262Z,-0.23
2017-01-05T09:00:13.324Z,-0.27
2017-01-05T09:01:13.382Z,-0.22
2017-01-05T09:02:13.191Z,-0.16
2017-01-05T09:03:13.321Z,-0.2
2017-01-05T09:04:13.905Z,-0.07
2017-01-05T09:05:13.381Z,-0.13
2017-01-05T09:06:13.204Z,-0.1
2017-01-05T09:07:13.220Z,-0.05
2017-01-05T09:08:13.303Z,0.02
2017-01-05T09:09:13.291Z,0.02
2017-01-05T09:10:13.298Z,0.05
2017-01-05T09:11:13.291Z,0.02
2017-01-05T09:12:13.264Z,0.08
2017-01-05T09:13:13.373Z,0.01
2017-01-05T09:14:13.348Z,0.1
2017-01-05T09:15:13.345Z,0.1
2017-01-05T09:16:13.287Z,0.16
2017-01-05T09:17:13.311Z,0.26
2017-01-05T09:18:13.292Z,0.45
2017-01-05T09:19:13.240Z,0.61
2017-01-05T09:20:13.441Z,0.89
2017-01-05T09:21:13.544Z,1.12
2017-01-05T09:22:13.292Z,1.4
2017-01-05T09:23:13.407Z,1.82
2017-01-05T09:24:13.375Z,1.54
2017-01-05T09:25:13.386Z,1.48
2017-01-05T09:26:13.310Z,1.56
2017-01-05T09:27:13.459Z,1.42
2017-01-05T09:28:13.325Z,1.61
2017-01-05T09:29:13.368Z,1.53
2017-01-05T09:30:13.291Z,1.58
2017-01-05T09:31:13.345Z,1.9
2017-01-05T09:32:13.386Z,2.06
2017-01-05T09:33:13.357Z,2.26
2017-01-05T09:34:13.342Z,2.08
2017-01-05T09:35:13.382Z,2.06
2017-01-05T09:36:13.375Z,2.11
2017-01-05T09:37:13.455Z,2.34
2017-01-05T09:38:13.443Z,2.2
2017-01-05T09:39:13.417Z,2.51
2017-01-05T09:40:13.405Z,2.72
2017-01-05T09:41:13.372Z,2.77
2017-01-05T09:42:13.371Z,3.11
2017-01-05T09:43:13.368Z,3.19
2017-01-05T09:44:13.383Z,3.14
2017-01-05T09:45:13.351Z,2.85
2017-01-05T09:46:13.463Z,2.95
2017-01-05T09:47:13.510Z,2.88
2017-01-05T09:48:13.445Z,2.84
2017-01-05T09:49:13.487Z,2.93
2017-01-05T09:50:13.319Z,3.06
2017-01-05T09:51:13.314Z,3.34
2017-01-05T09:52:13.397Z,3.34
2017-01-05T09:53:13.530Z,3.51
2017-01-05T09:54:13.337Z,3.51
2017-01-05T09:55:13.391Z,3.72
2017-01-05T09:56:13.394Z,3.45
2017-01-05T09:57:13.365Z,3.45
2017-01-05T09:58:13.395Z,3.37
2017-01-05T09:59:13.385Z,3.49
2017-01-05T10:00:13.367Z,3.49
2017-01-05T10:01:13.378Z,3.51
2017-01-05T10:02:13.419Z,3.63
2017-01-05T10:03:13.350Z,3.67
2017-01-05T10:04:13.441Z,4.02
2017-01-05T10:05:13.377Z,4.1
2017-01-05T10:06:13.493Z,4.18
2017-01-05T10:07:13.436Z,4.12
2017-01-05T10:08:13.397Z,4.24
2017-01-05T10:09:13.463Z,3.99
2017-01-05T10:10:13.377Z,3.84
2017-01-05T10:11:13.434Z,3.94
2017-01-05T10:12:13.381Z,3.99
2017-01-05T10:13:13.368Z,3.97
2017-01-05T10:14:13.449Z,4.22
2017-01-05T10:15:13.434Z,4.53
2017-01-05T10:16:13.517Z,4.48
2017-01-05T10:17:13.428Z,4.83
2017-01-05T10:18:13.488Z,4.98
2017-01-05T10:19:13.512Z,4.9
2017-01-05T10:20:13.476Z,5.13
2017-01-05T10:21:13.487Z,5.33
2017-01-05T10:22:13.469Z,5.41
2017-01-05T10:23:13.518Z,5.64
2017-01-05T10:24:13.469Z,5.57
2017-01-05T10:25:13.541Z,5.31
2017-01-05T10:26:13.452Z,4.75
2017-01-05T10:27:13.480Z,4.42
2017-01-05T10:28:13.475Z,4.42
2017-01-05T10:29:13.528Z,4.22
2017-01-05T10:30:13.528Z,4.26
2017-01-05T10:31:13.446Z,4.12
2017-01-05T10:32:13.500Z,4.32
2017-01-05T10:33:13.485Z,4.5
2017-01-05T10:34:13.466Z,4.56
2017-01-05T10:35:13.448Z,4.65
2017-01-05T10:36:13.504Z,4.84
2017-01-05T10:37:13.499Z,4.94
2017-01-05T10:38:13.527Z,4.69
2017-01-05T10:39:13.530Z,4.72
2017-01-05T10:40:13.511Z,4.74
2017-01-05T10:41:13.616Z,5
2017-01-05T10:42:13.567Z,5.16
2017-01-05T10:43:13.529Z,5.3
2017-01-05T10:44:13.536Z,4.97
2017-01-05T10:45:13.610Z,4.9
2017-01-05T10:46:13.544Z,5.15
2017-01-05T10:47:13.599Z,5.08
2017-01-05T10:48:13.577Z,5.26
2017-01-05T10:49:13.566Z,5.27
2017-01-05T10:50:13.509Z,5.23
2017-01-05T10:51:13.545Z,5.46
2017-01-05T10:52:13.633Z,5.39
2017-01-05T10:53:13.548Z,5.3
2017-01-05T10:54:13.625Z,5.15
2017-01-05T10:55:13.489Z,5.12
2017-01-05T10:56:13.625Z,5.51
2017-01-05T10:57:13.657Z,5.37
2017-01-05T10:58:13.571Z,5.45
2017-01-05T10:59:13.532Z,5.05
2017-01-05T11:00:13.574Z,4.51
2017-01-05T11:01:13.564Z,4.56
2017-01-05T11:02:13.659Z,4.64
2017-01-05T11:03:13.529Z,4.71
2017-01-05T11:04:13.576Z,4.9
2017-01-05T11:05:13.540Z,5.08
2017-01-05T11:06:13.588Z,4.61
2017-01-05T11:07:13.626Z,4.5
2017-01-05T11:08:13.607Z,4.61
2017-01-05T11:09:13.675Z,4.61
2017-01-05T11:10:13.634Z,4.6
2017-01-05T11:11:13.541Z,4.65
2017-01-05T11:12:13.581Z,4.54
2017-01-05T11:13:13.625Z,4.5
2017-01-05T11:14:13.593Z,4.42
2017-01-05T11:15:13.568Z,4.36
2017-01-05T11:16:13.579Z,4.18
2017-01-05T11:17:13.616Z,4.04
2017-01-05T11:18:13.712Z,4.08
2017-01-05T11:19:13.672Z,3.97
2017-01-05T11:20:13.723Z,4.3
2017-01-05T11:21:13.645Z,4.44
2017-01-05T11:22:13.648Z,4.5
2017-01-05T11:23:13.681Z,4.56
2017-01-05T11:24:13.599Z,4.51
2017-01-05T11:25:13.635Z,4.85
2017-01-05T11:26:13.579Z,4.72
2017-01-05T11:27:13.656Z,4.35
2017-01-05T11:28:13.668Z,3.99
2017-01-05T11:29:13.738Z,3.86
2017-01-05T11:30:13.702Z,3.84
2017-01-05T11:31:13.653Z,4.04
2017-01-05T11:32:13.674Z,4.18
2017-01-05T11:33:13.655Z,4.42
2017-01-05T11:34:13.783Z,4.42
2017-01-05T11:35:13.719Z,4.3
2017-01-05T11:36:13.685Z,4.26
2017-01-05T11:37:13.688Z,4.21
2017-01-05T11:38:13.742Z,4.21
2017-01-05T11:39:13.732Z,4.26
2017-01-05T11:40:13.768Z,4.26
2017-01-05T11:41:13.705Z,4.53
2017-01-05T11:42:13.737Z,4.72
2017-01-05T11:43:13.742Z,4.64
2017-01-05T11:44:13.648Z,4.64
2017-01-05T11:45:13.719Z,4.53
2017-01-05T11:46:13.705Z,4.78
2017-01-05T11:47:13.858Z,5
2017-01-05T11:48:13.699Z,5.06
2017-01-05T11:49:13.802Z,5.23
2017-01-05T11:50:13.722Z,5.34
2017-01-05T11:51:13.773Z,5.33
2017-01-05T11:52:13.681Z,5.09
2017-01-05T11:53:13.761Z,5.24
2017-01-05T11:54:13.729Z,5
2017-01-05T11:55:13.730Z,4.75
2017-01-05T11:56:13.701Z,4.75
2017-01-05T11:57:13.724Z,5.02
2017-01-05T11:58:13.883Z,5.18
2017-01-05T11:59:13.733Z,5.16
2017-01-05T12:00:13.717Z,5.02
2017-01-05T12:01:13.756Z,5.15
2017-01-05T12:02:13.795Z,4.75
2017-01-05T12:03:13.688Z,5
2017-01-05T12:04:13.752Z,5
2017-01-05T12:05:13.832Z,5.26
2017-01-05T12:06:13.844Z,5.27
2017-01-05T12:07:13.843Z,5.37
2017-01-05T12:08:13.916Z,5.31
2017-01-05T12:09:13.791Z,5.34
2017-01-05T12:10:13.852Z,5.51
2017-01-05T12:11:13.709Z,5.64
2017-01-05T12:12:13.779Z,5.66
2017-01-05T12:13:13.794Z,5.52
2017-01-05T12:14:14.252Z,5.75
2017-01-05T12:15:13.836Z,5.23
2017-01-05T12:16:13.794Z,4.91
2017-01-05T12:17:13.746Z,4.54
2017-01-05T12:18:13.839Z,4.54
2017-01-05T12:19:13.893Z,5.09
2017-01-05T12:20:13.838Z,5.36
2017-01-05T12:21:13.964Z,5.8
2017-01-05T12:22:13.839Z,5.96
2017-01-05T12:23:13.857Z,5.64
2017-01-05T12:24:13.849Z,5.26
2017-01-05T12:25:13.858Z,5.54
2017-01-05T12:26:13.756Z,5.33
2017-01-05T12:27:13.792Z,5.34
2017-01-05T12:28:13.771Z,5.51
2017-01-05T12:29:14.041Z,5.69
2017-01-05T12:30:13.767Z,6.03
2017-01-05T12:31:13.853Z,5.8
2017-01-05T12:32:13.770Z,5.26
2017-01-05T12:33:13.866Z,4.85
2017-01-05T12:34:13.911Z,4.71
2017-01-05T12:35:13.860Z,4.69
2017-01-05T12:36:13.859Z,3.32
2017-01-05T12:37:13.929Z,2.88
2017-01-05T12:38:13.799Z,2.77
2017-01-05T12:39:13.882Z,2.62
2017-01-05T12:40:13.979Z,2.54
2017-01-05T12:41:13.854Z,2.55
2017-01-05T12:42:13.799Z,2.69
2017-01-05T12:43:13.868Z,2.83
2017-01-05T12:44:13.862Z,2.87
2017-01-05T12:45:13.802Z,2.99
2017-01-05T12:46:13.850Z,2.76
2017-01-05T12:47:13.898Z,2.55
2017-01-05T12:48:13.807Z,2.54
2017-01-05T12:49:13.931Z,2.54
2017-01-05T12:50:13.900Z,2.72
2017-01-05T12:51:13.951Z,2.95
2017-01-05T12:52:14.022Z,3.29
2017-01-05T12:53:13.908Z,3.89
2017-01-05T12:54:13.915Z,3.71
2017-01-05T12:55:13.913Z,3.61
2017-01-05T12:56:13.938Z,3.34
2017-01-05T12:57:13.844Z,3.26
2017-01-05T12:58:13.945Z,3.01
2017-01-05T12:59:13.959Z,2.85
2017-01-05T13:00:14.014Z,2.83
2017-01-05T13:01:13.972Z,2.67
2017-01-05T13:02:13.922Z,2.77
2017-01-05T13:03:13.851Z,2.7
2017-01-05T13:04:13.859Z,2.69
2017-01-05T13:05:13.940Z,2.65
2017-01-05T13:06:13.920Z,2.38
2017-01-05T13:07:13.927Z,2.42
2017-01-05T13:08:13.919Z,2.3
2017-01-05T13:09:13.881Z,2.29
2017-01-05T13:10:13.964Z,2.2
2017-01-05T13:11:13.911Z,2.22
2017-01-05T13:12:13.936Z,2.13
2017-01-05T13:13:13.941Z,2.18
2017-01-05T13:14:14.046Z,2.09
2017-01-05T13:15:14.004Z,2.15